sensor_id;sensor_type;location;lat;lon;timestamp;P1;durP1;ratioP1;P2;durP2;ratioP2
14187;SDS011;7175;51.978;5.330;2023-12-20T00:01:21;98.73;;;91.63;;
14187;SDS011;7175;51.978;5.330;2023-12-20T00:03:51;101.30;;;94.00;;
14187;SDS011;7175;51.978;5.330;2023-12-20T00:06:19;91.43;;;84.63;;
14187;SDS011;7175;51.978;5.330;2023-12-20T00:08:47;96.90;;;89.90;;
14187;SDS011;7175;51.978;5.330;2023-12-20T00:11:15;95.40;;;88.50;;
14187;SDS011;7175;51.978;5.330;2023-12-20T00:13:43;94.77;;;87.93;;
14187;SDS011;7175;51.978;5.330;2023-12-20T00:16:16;95.17;;;88.20;;
14187;SDS011;7175;51.978;5.330;2023-12-20T00:18:44;95.17;;;88.17;;
14187;SDS011;7175;51.978;5.330;2023-12-20T00:21:13;95.03;;;88.23;;
14187;SDS011;7175;51.978;5.330;2023-12-20T00:23:41;100.57;;;93.37;;
14187;SDS011;7175;51.978;5.330;2023-12-20T00:26:09;101.87;;;94.57;;
14187;SDS011;7175;51.978;5.330;2023-12-20T00:28:37;97.97;;;90.87;;
14187;SDS011;7175;51.978;5.330;2023-12-20T00:31:05;100.07;;;92.80;;
14187;SDS011;7175;51.978;5.330;2023-12-20T00:33:33;100.83;;;93.53;;
14187;SDS011;7175;51.978;5.330;2023-12-20T00:36:02;100.53;;;93.20;;
14187;SDS011;7175;51.978;5.330;2023-12-20T00:38:32;98.67;;;91.37;;
14187;SDS011;7175;51.978;5.330;2023-12-20T00:41:00;97.30;;;90.20;;
14187;SDS011;7175;51.978;5.330;2023-12-20T00:43:28;99.07;;;91.90;;
14187;SDS011;7175;51.978;5.330;2023-12-20T00:45:56;97.73;;;90.63;;
14187;SDS011;7175;51.978;5.330;2023-12-20T00:48:26;99.00;;;91.90;;
14187;SDS011;7175;51.978;5.330;2023-12-20T00:50:56;95.07;;;88.10;;
14187;SDS011;7175;51.978;5.330;2023-12-20T00:53:24;96.97;;;89.87;;
14187;SDS011;7175;51.978;5.330;2023-12-20T00:55:54;96.10;;;89.10;;
14187;SDS011;7175;51.978;5.330;2023-12-20T00:58:22;99.00;;;91.90;;
14187;SDS011;7175;51.978;5.330;2023-12-20T01:00:50;98.47;;;91.27;;
14187;SDS011;7175;51.978;5.330;2023-12-20T01:03:18;102.97;;;95.57;;
14187;SDS011;7175;51.978;5.330;2023-12-20T01:05:46;105.03;;;97.63;;
14187;SDS011;7175;51.978;5.330;2023-12-20T01:08:14;103.37;;;95.97;;
14187;SDS011;7175;51.978;5.330;2023-12-20T01:10:42;102.70;;;95.30;;
14187;SDS011;7175;51.978;5.330;2023-12-20T01:13:11;101.63;;;94.33;;
14187;SDS011;7175;51.978;5.330;2023-12-20T01:15:40;107.00;;;99.50;;
14187;SDS011;7175;51.978;5.330;2023-12-20T01:18:08;106.23;;;98.73;;
14187;SDS011;7175;51.978;5.330;2023-12-20T01:20:36;109.07;;;101.43;;
14187;SDS011;7175;51.978;5.330;2023-12-20T01:23:04;110.10;;;102.30;;
14187;SDS011;7175;51.978;5.330;2023-12-20T01:25:32;104.37;;;96.97;;
14187;SDS011;7175;51.978;5.330;2023-12-20T01:28:01;105.83;;;98.33;;
14187;SDS011;7175;51.978;5.330;2023-12-20T01:30:30;107.97;;;100.37;;
14187;SDS011;7175;51.978;5.330;2023-12-20T01:32:59;107.47;;;99.77;;
14187;SDS011;7175;51.978;5.330;2023-12-20T01:35:27;107.30;;;99.70;;
14187;SDS011;7175;51.978;5.330;2023-12-20T01:37:55;103.43;;;96.10;;
14187;SDS011;7175;51.978;5.330;2023-12-20T01:40:23;104.73;;;97.23;;
14187;SDS011;7175;51.978;5.330;2023-12-20T01:43:00;106.30;;;98.77;;
14187;SDS011;7175;51.978;5.330;2023-12-20T01:45:31;106.50;;;98.90;;
14187;SDS011;7175;51.978;5.330;2023-12-20T01:47:59;110.27;;;102.50;;
14187;SDS011;7175;51.978;5.330;2023-12-20T01:50:29;107.40;;;99.90;;
14187;SDS011;7175;51.978;5.330;2023-12-20T01:52:58;110.33;;;102.63;;
14187;SDS011;7175;51.978;5.330;2023-12-20T01:55:29;109.67;;;102.07;;
14187;SDS011;7175;51.978;5.330;2023-12-20T01:58:00;107.17;;;99.77;;
14187;SDS011;7175;51.978;5.330;2023-12-20T02:00:29;109.70;;;102.10;;
14187;SDS011;7175;51.978;5.330;2023-12-20T02:02:59;108.03;;;100.53;;
14187;SDS011;7175;51.978;5.330;2023-12-20T02:05:29;107.03;;;99.53;;
14187;SDS011;7175;51.978;5.330;2023-12-20T02:07:58;108.30;;;100.80;;
14187;SDS011;7175;51.978;5.330;2023-12-20T02:10:26;106.80;;;99.30;;
14187;SDS011;7175;51.978;5.330;2023-12-20T02:12:55;110.47;;;102.77;;
14187;SDS011;7175;51.978;5.330;2023-12-20T02:15:23;108.90;;;101.30;;
14187;SDS011;7175;51.978;5.330;2023-12-20T02:17:52;110.80;;;103.20;;
14187;SDS011;7175;51.978;5.330;2023-12-20T02:20:21;115.20;;;107.23;;
14187;SDS011;7175;51.978;5.330;2023-12-20T02:22:50;112.37;;;104.57;;
14187;SDS011;7175;51.978;5.330;2023-12-20T02:25:18;107.30;;;99.80;;
14187;SDS011;7175;51.978;5.330;2023-12-20T02:27:47;103.40;;;96.13;;
14187;SDS011;7175;51.978;5.330;2023-12-20T02:30:15;106.40;;;99.00;;
14187;SDS011;7175;51.978;5.330;2023-12-20T02:32:43;108.70;;;101.20;;
14187;SDS011;7175;51.978;5.330;2023-12-20T02:35:11;105.50;;;98.10;;
14187;SDS011;7175;51.978;5.330;2023-12-20T02:37:40;108.37;;;100.80;;
14187;SDS011;7175;51.978;5.330;2023-12-20T02:40:10;112.23;;;104.53;;
14187;SDS011;7175;51.978;5.330;2023-12-20T02:42:38;107.77;;;100.23;;
14187;SDS011;7175;51.978;5.330;2023-12-20T02:45:06;106.00;;;98.60;;
14187;SDS011;7175;51.978;5.330;2023-12-20T02:47:35;106.97;;;99.40;;
14187;SDS011;7175;51.978;5.330;2023-12-20T02:50:03;108.80;;;101.20;;
14187;SDS011;7175;51.978;5.330;2023-12-20T02:52:31;113.00;;;105.20;;
14187;SDS011;7175;51.978;5.330;2023-12-20T02:54:59;112.17;;;104.37;;
14187;SDS011;7175;51.978;5.330;2023-12-20T02:57:29;108.50;;;100.90;;
14187;SDS011;7175;51.978;5.330;2023-12-20T02:59:57;107.67;;;100.17;;
14187;SDS011;7175;51.978;5.330;2023-12-20T03:02:24;108.80;;;101.20;;
14187;SDS011;7175;51.978;5.330;2023-12-20T03:04:52;112.17;;;104.37;;
14187;SDS011;7175;51.978;5.330;2023-12-20T03:07:21;112.47;;;104.57;;
14187;SDS011;7175;51.978;5.330;2023-12-20T03:09:49;111.30;;;103.50;;
14187;SDS011;7175;51.978;5.330;2023-12-20T03:12:38;113.87;;;105.97;;
14187;SDS011;7175;51.978;5.330;2023-12-20T03:15:07;104.67;;;97.27;;
14187;SDS011;7175;51.978;5.330;2023-12-20T03:17:35;103.33;;;95.93;;
14187;SDS011;7175;51.978;5.330;2023-12-20T03:20:04;103.97;;;96.57;;
14187;SDS011;7175;51.978;5.330;2023-12-20T03:22:33;102.50;;;95.20;;
14187;SDS011;7175;51.978;5.330;2023-12-20T03:25:01;105.80;;;98.30;;
14187;SDS011;7175;51.978;5.330;2023-12-20T03:27:29;108.17;;;100.37;;
14187;SDS011;7175;51.978;5.330;2023-12-20T03:29:59;97.80;;;90.30;;
14187;SDS011;7175;51.978;5.330;2023-12-20T03:32:27;104.53;;;96.97;;
14187;SDS011;7175;51.978;5.330;2023-12-20T03:34:55;92.70;;;85.50;;
14187;SDS011;7175;51.978;5.330;2023-12-20T03:37:23;101.20;;;93.80;;
14187;SDS011;7175;51.978;5.330;2023-12-20T03:39:51;98.80;;;91.40;;
14187;SDS011;7175;51.978;5.330;2023-12-20T03:42:19;100.43;;;92.93;;
14187;SDS011;7175;51.978;5.330;2023-12-20T03:44:47;94.13;;;86.83;;
14187;SDS011;7175;51.978;5.330;2023-12-20T03:47:16;94.73;;;87.70;;
14187;SDS011;7175;51.978;5.330;2023-12-20T03:49:44;95.03;;;87.80;;
14187;SDS011;7175;51.978;5.330;2023-12-20T03:52:13;96.80;;;89.40;;
14187;SDS011;7175;51.978;5.330;2023-12-20T03:54:41;91.10;;;84.10;;
14187;SDS011;7175;51.978;5.330;2023-12-20T03:57:09;99.17;;;91.87;;
14187;SDS011;7175;51.978;5.330;2023-12-20T03:59:37;99.37;;;92.27;;
14187;SDS011;7175;51.978;5.330;2023-12-20T04:02:05;96.70;;;89.80;;
14187;SDS011;7175;51.978;5.330;2023-12-20T04:04:34;94.93;;;88.10;;
14187;SDS011;7175;51.978;5.330;2023-12-20T04:07:03;92.17;;;85.40;;
14187;SDS011;7175;51.978;5.330;2023-12-20T04:09:31;91.77;;;85.07;;
14187;SDS011;7175;51.978;5.330;2023-12-20T04:11:59;92.53;;;85.83;;
14187;SDS011;7175;51.978;5.330;2023-12-20T04:14:27;93.20;;;86.50;;
14187;SDS011;7175;51.978;5.330;2023-12-20T04:16:55;91.63;;;84.93;;
14187;SDS011;7175;51.978;5.330;2023-12-20T04:19:23;91.33;;;84.63;;
14187;SDS011;7175;51.978;5.330;2023-12-20T04:21:52;96.57;;;89.67;;
14187;SDS011;7175;51.978;5.330;2023-12-20T04:24:20;93.43;;;86.73;;
14187;SDS011;7175;51.978;5.330;2023-12-20T04:26:48;89.57;;;83.07;;
14187;SDS011;7175;51.978;5.330;2023-12-20T04:29:16;86.57;;;80.20;;
14187;SDS011;7175;51.978;5.330;2023-12-20T04:31:44;87.47;;;81.07;;
14187;SDS011;7175;51.978;5.330;2023-12-20T04:34:12;89.37;;;82.87;;
14187;SDS011;7175;51.978;5.330;2023-12-20T04:36:40;88.67;;;82.17;;
14187;SDS011;7175;51.978;5.330;2023-12-20T04:39:11;88.70;;;82.30;;
14187;SDS011;7175;51.978;5.330;2023-12-20T04:41:41;88.17;;;81.77;;
14187;SDS011;7175;51.978;5.330;2023-12-20T04:44:09;88.07;;;81.70;;
14187;SDS011;7175;51.978;5.330;2023-12-20T04:46:37;90.00;;;83.50;;
14187;SDS011;7175;51.978;5.330;2023-12-20T04:49:05;85.90;;;79.67;;
14187;SDS011;7175;51.978;5.330;2023-12-20T04:51:33;84.27;;;78.17;;
14187;SDS011;7175;51.978;5.330;2023-12-20T04:54:01;80.17;;;74.13;;
14187;SDS011;7175;51.978;5.330;2023-12-20T04:56:30;78.80;;;72.80;;
14187;SDS011;7175;51.978;5.330;2023-12-20T04:58:58;82.80;;;76.70;;
14187;SDS011;7175;51.978;5.330;2023-12-20T05:01:27;75.77;;;70.00;;
14187;SDS011;7175;51.978;5.330;2023-12-20T05:03:55;77.77;;;71.97;;
14187;SDS011;7175;51.978;5.330;2023-12-20T05:06:23;72.90;;;67.30;;
14187;SDS011;7175;51.978;5.330;2023-12-20T05:08:51;74.23;;;68.60;;
14187;SDS011;7175;51.978;5.330;2023-12-20T05:11:19;69.00;;;63.60;;
14187;SDS011;7175;51.978;5.330;2023-12-20T05:13:48;68.40;;;63.00;;
14187;SDS011;7175;51.978;5.330;2023-12-20T05:16:16;68.40;;;63.00;;
14187;SDS011;7175;51.978;5.330;2023-12-20T05:18:46;69.20;;;63.77;;
14187;SDS011;7175;51.978;5.330;2023-12-20T05:21:16;67.40;;;62.00;;
14187;SDS011;7175;51.978;5.330;2023-12-20T05:23:43;66.80;;;61.50;;
14187;SDS011;7175;51.978;5.330;2023-12-20T05:26:12;64.67;;;59.40;;
14187;SDS011;7175;51.978;5.330;2023-12-20T05:28:40;65.27;;;60.00;;
14187;SDS011;7175;51.978;5.330;2023-12-20T05:31:09;67.47;;;62.07;;
14187;SDS011;7175;51.978;5.330;2023-12-20T05:33:37;65.87;;;60.67;;
14187;SDS011;7175;51.978;5.330;2023-12-20T05:36:06;66.60;;;61.30;;
14187;SDS011;7175;51.978;5.330;2023-12-20T05:38:37;66.17;;;60.87;;
14187;SDS011;7175;51.978;5.330;2023-12-20T05:41:05;66.20;;;60.90;;
14187;SDS011;7175;51.978;5.330;2023-12-20T05:43:33;64.30;;;59.10;;
14187;SDS011;7175;51.978;5.330;2023-12-20T05:46:01;61.47;;;56.47;;
14187;SDS011;7175;51.978;5.330;2023-12-20T05:48:31;63.73;;;58.63;;
14187;SDS011;7175;51.978;5.330;2023-12-20T05:50:59;63.90;;;58.80;;
14187;SDS011;7175;51.978;5.330;2023-12-20T05:53:27;64.77;;;59.77;;
14187;SDS011;7175;51.978;5.330;2023-12-20T05:55:55;61.37;;;56.47;;
14187;SDS011;7175;51.978;5.330;2023-12-20T05:58:23;63.13;;;58.13;;
14187;SDS011;7175;51.978;5.330;2023-12-20T06:00:51;60.47;;;55.60;;
14187;SDS011;7175;51.978;5.330;2023-12-20T06:03:19;60.47;;;55.57;;
14187;SDS011;7175;51.978;5.330;2023-12-20T06:05:48;59.17;;;54.37;;
14187;SDS011;7175;51.978;5.330;2023-12-20T06:08:21;58.50;;;53.70;;
14187;SDS011;7175;51.978;5.330;2023-12-20T06:10:48;54.00;;;49.50;;
14187;SDS011;7175;51.978;5.330;2023-12-20T06:13:16;55.43;;;50.90;;
14187;SDS011;7175;51.978;5.330;2023-12-20T06:15:44;53.73;;;49.23;;
14187;SDS011;7175;51.978;5.330;2023-12-20T06:18:13;51.40;;;47.00;;
14187;SDS011;7175;51.978;5.330;2023-12-20T06:20:41;52.10;;;47.70;;
14187;SDS011;7175;51.978;5.330;2023-12-20T06:23:10;50.57;;;46.17;;
14187;SDS011;7175;51.978;5.330;2023-12-20T06:25:38;50.37;;;45.97;;
14187;SDS011;7175;51.978;5.330;2023-12-20T06:28:06;48.20;;;44.00;;
14187;SDS011;7175;51.978;5.330;2023-12-20T06:30:36;48.63;;;44.33;;
14187;SDS011;7175;51.978;5.330;2023-12-20T06:33:04;48.37;;;44.10;;
14187;SDS011;7175;51.978;5.330;2023-12-20T06:35:33;48.17;;;43.90;;
14187;SDS011;7175;51.978;5.330;2023-12-20T06:38:02;49.23;;;44.93;;
14187;SDS011;7175;51.978;5.330;2023-12-20T06:40:33;49.20;;;44.90;;
14187;SDS011;7175;51.978;5.330;2023-12-20T06:43:01;47.40;;;43.30;;
14187;SDS011;7175;51.978;5.330;2023-12-20T06:45:41;47.50;;;43.40;;
14187;SDS011;7175;51.978;5.330;2023-12-20T06:48:10;47.30;;;43.20;;
14187;SDS011;7175;51.978;5.330;2023-12-20T06:50:39;46.60;;;42.60;;
14187;SDS011;7175;51.978;5.330;2023-12-20T06:53:07;45.83;;;41.90;;
14187;SDS011;7175;51.978;5.330;2023-12-20T06:55:37;46.00;;;42.07;;
14187;SDS011;7175;51.978;5.330;2023-12-20T06:58:05;45.37;;;41.40;;
14187;SDS011;7175;51.978;5.330;2023-12-20T07:00:33;44.87;;;40.97;;
14187;SDS011;7175;51.978;5.330;2023-12-20T07:03:01;46.50;;;42.50;;
14187;SDS011;7175;51.978;5.330;2023-12-20T07:05:29;47.50;;;43.40;;
14187;SDS011;7175;51.978;5.330;2023-12-20T07:07:57;49.03;;;44.93;;
14187;SDS011;7175;51.978;5.330;2023-12-20T07:10:25;47.70;;;43.60;;
14187;SDS011;7175;51.978;5.330;2023-12-20T07:12:54;50.35;;;46.05;;
14187;SDS011;7175;51.978;5.330;2023-12-20T07:15:22;50.57;;;46.27;;
14187;SDS011;7175;51.978;5.330;2023-12-20T07:17:51;49.33;;;45.13;;
14187;SDS011;7175;51.978;5.330;2023-12-20T07:20:19;48.77;;;44.67;;
14187;SDS011;7175;51.978;5.330;2023-12-20T07:22:47;48.10;;;44.00;;
14187;SDS011;7175;51.978;5.330;2023-12-20T07:25:15;49.40;;;45.30;;
14187;SDS011;7175;51.978;5.330;2023-12-20T07:27:43;48.50;;;44.50;;
14187;SDS011;7175;51.978;5.330;2023-12-20T07:30:13;46.60;;;42.70;;
14187;SDS011;7175;51.978;5.330;2023-12-20T07:32:41;45.10;;;41.20;;
14187;SDS011;7175;51.978;5.330;2023-12-20T07:35:10;43.13;;;39.43;;
14187;SDS011;7175;51.978;5.330;2023-12-20T07:37:38;44.77;;;40.97;;
14187;SDS011;7175;51.978;5.330;2023-12-20T07:40:06;46.00;;;42.10;;
14187;SDS011;7175;51.978;5.330;2023-12-20T07:42:35;46.03;;;42.13;;
14187;SDS011;7175;51.978;5.330;2023-12-20T07:45:03;41.37;;;37.77;;
14187;SDS011;7175;51.978;5.330;2023-12-20T07:47:33;42.40;;;38.70;;
14187;SDS011;7175;51.978;5.330;2023-12-20T07:50:01;40.80;;;37.20;;
14187;SDS011;7175;51.978;5.330;2023-12-20T07:52:29;42.70;;;39.00;;
14187;SDS011;7175;51.978;5.330;2023-12-20T07:54:57;46.00;;;42.00;;
14187;SDS011;7175;51.978;5.330;2023-12-20T07:57:28;48.40;;;44.20;;
14187;SDS011;7175;51.978;5.330;2023-12-20T07:59:56;44.73;;;40.83;;
14187;SDS011;7175;51.978;5.330;2023-12-20T08:02:24;45.70;;;41.70;;
14187;SDS011;7175;51.978;5.330;2023-12-20T08:04:53;45.87;;;41.87;;
14187;SDS011;7175;51.978;5.330;2023-12-20T08:07:21;46.60;;;42.50;;
14187;SDS011;7175;51.978;5.330;2023-12-20T08:09:49;46.73;;;42.63;;
14187;SDS011;7175;51.978;5.330;2023-12-20T08:12:18;45.73;;;41.70;;
14187;SDS011;7175;51.978;5.330;2023-12-20T08:14:46;44.77;;;40.77;;
14187;SDS011;7175;51.978;5.330;2023-12-20T08:17:14;43.17;;;39.27;;
14187;SDS011;7175;51.978;5.330;2023-12-20T08:19:42;43.30;;;39.40;;
14187;SDS011;7175;51.978;5.330;2023-12-20T08:22:12;43.03;;;39.13;;
14187;SDS011;7175;51.978;5.330;2023-12-20T08:24:40;42.70;;;38.80;;
14187;SDS011;7175;51.978;5.330;2023-12-20T08:27:08;42.40;;;38.60;;
14187;SDS011;7175;51.978;5.330;2023-12-20T08:29:36;42.27;;;38.47;;
14187;SDS011;7175;51.978;5.330;2023-12-20T08:32:04;41.50;;;37.77;;
14187;SDS011;7175;51.978;5.330;2023-12-20T08:34:32;41.67;;;37.83;;
14187;SDS011;7175;51.978;5.330;2023-12-20T08:37:00;45.73;;;41.73;;
14187;SDS011;7175;51.978;5.330;2023-12-20T08:39:30;42.67;;;38.87;;
14187;SDS011;7175;51.978;5.330;2023-12-20T08:41:59;45.27;;;41.30;;
14187;SDS011;7175;51.978;5.330;2023-12-20T08:44:27;44.80;;;40.83;;
14187;SDS011;7175;51.978;5.330;2023-12-20T08:46:55;40.33;;;36.53;;
14187;SDS011;7175;51.978;5.330;2023-12-20T08:49:23;40.70;;;36.90;;
14187;SDS011;7175;51.978;5.330;2023-12-20T08:51:52;44.07;;;40.17;;
14187;SDS011;7175;51.978;5.330;2023-12-20T08:54:20;45.20;;;41.23;;
14187;SDS011;7175;51.978;5.330;2023-12-20T08:56:49;40.47;;;36.77;;
14187;SDS011;7175;51.978;5.330;2023-12-20T08:59:18;42.70;;;38.90;;
14187;SDS011;7175;51.978;5.330;2023-12-20T09:01:46;38.30;;;34.70;;
14187;SDS011;7175;51.978;5.330;2023-12-20T09:04:14;40.60;;;36.93;;
14187;SDS011;7175;51.978;5.330;2023-12-20T09:06:43;40.13;;;36.53;;
14187;SDS011;7175;51.978;5.330;2023-12-20T09:09:11;39.87;;;36.27;;
14187;SDS011;7175;51.978;5.330;2023-12-20T09:11:40;42.23;;;38.43;;
14187;SDS011;7175;51.978;5.330;2023-12-20T09:14:10;40.17;;;36.47;;
14187;SDS011;7175;51.978;5.330;2023-12-20T09:16:38;40.03;;;36.40;;
14187;SDS011;7175;51.978;5.330;2023-12-20T09:19:06;39.47;;;35.87;;
14187;SDS011;7175;51.978;5.330;2023-12-20T09:21:34;38.53;;;34.93;;
14187;SDS011;7175;51.978;5.330;2023-12-20T09:24:03;40.03;;;36.33;;
14187;SDS011;7175;51.978;5.330;2023-12-20T09:26:31;39.33;;;35.67;;
14187;SDS011;7175;51.978;5.330;2023-12-20T09:28:59;38.17;;;34.57;;
14187;SDS011;7175;51.978;5.330;2023-12-20T09:31:28;38.43;;;34.87;;
14187;SDS011;7175;51.978;5.330;2023-12-20T09:33:56;39.33;;;35.73;;
14187;SDS011;7175;51.978;5.330;2023-12-20T09:36:25;40.17;;;36.47;;
14187;SDS011;7175;51.978;5.330;2023-12-20T09:38:53;40.67;;;36.97;;
14187;SDS011;7175;51.978;5.330;2023-12-20T09:41:21;41.97;;;38.17;;
14187;SDS011;7175;51.978;5.330;2023-12-20T09:43:51;38.43;;;34.93;;
14187;SDS011;7175;51.978;5.330;2023-12-20T09:46:23;39.73;;;36.13;;
14187;SDS011;7175;51.978;5.330;2023-12-20T09:48:55;37.90;;;34.40;;
14187;SDS011;7175;51.978;5.330;2023-12-20T09:51:24;37.97;;;34.47;;
14187;SDS011;7175;51.978;5.330;2023-12-20T09:53:53;36.37;;;32.97;;
14187;SDS011;7175;51.978;5.330;2023-12-20T09:56:23;36.67;;;33.27;;
14187;SDS011;7175;51.978;5.330;2023-12-20T09:58:53;37.60;;;34.10;;
14187;SDS011;7175;51.978;5.330;2023-12-20T10:01:21;38.13;;;34.63;;
14187;SDS011;7175;51.978;5.330;2023-12-20T10:03:49;38.47;;;34.97;;
14187;SDS011;7175;51.978;5.330;2023-12-20T10:06:22;37.03;;;33.63;;
14187;SDS011;7175;51.978;5.330;2023-12-20T10:08:50;36.83;;;33.43;;
14187;SDS011;7175;51.978;5.330;2023-12-20T10:11:18;36.93;;;33.53;;
14187;SDS011;7175;51.978;5.330;2023-12-20T10:13:47;37.67;;;34.27;;
14187;SDS011;7175;51.978;5.330;2023-12-20T10:16:15;36.20;;;32.90;;
14187;SDS011;7175;51.978;5.330;2023-12-20T10:18:43;34.63;;;31.33;;
14187;SDS011;7175;51.978;5.330;2023-12-20T10:21:13;35.23;;;31.93;;
14187;SDS011;7175;51.978;5.330;2023-12-20T10:23:42;35.70;;;32.40;;
14187;SDS011;7175;51.978;5.330;2023-12-20T10:26:10;35.70;;;32.40;;
14187;SDS011;7175;51.978;5.330;2023-12-20T10:28:49;36.27;;;32.97;;
14187;SDS011;7175;51.978;5.330;2023-12-20T10:31:27;34.90;;;31.60;;
14187;SDS011;7175;51.978;5.330;2023-12-20T10:33:57;35.80;;;32.50;;
14187;SDS011;7175;51.978;5.330;2023-12-20T10:36:26;34.10;;;30.90;;
14187;SDS011;7175;51.978;5.330;2023-12-20T10:38:56;35.40;;;32.17;;
14187;SDS011;7175;51.978;5.330;2023-12-20T10:41:27;34.43;;;31.30;;
14187;SDS011;7175;51.978;5.330;2023-12-20T10:43:57;33.93;;;30.83;;
14187;SDS011;7175;51.978;5.330;2023-12-20T10:46:27;32.47;;;29.47;;
14187;SDS011;7175;51.978;5.330;2023-12-20T10:48:56;31.83;;;28.83;;
14187;SDS011;7175;51.978;5.330;2023-12-20T10:51:25;32.10;;;29.00;;
14187;SDS011;7175;51.978;5.330;2023-12-20T10:53:54;34.00;;;30.80;;
14187;SDS011;7175;51.978;5.330;2023-12-20T10:56:24;32.93;;;29.83;;
14187;SDS011;7175;51.978;5.330;2023-12-20T10:58:56;31.67;;;28.67;;
14187;SDS011;7175;51.978;5.330;2023-12-20T11:01:29;31.93;;;28.93;;
14187;SDS011;7175;51.978;5.330;2023-12-20T11:03:58;30.97;;;28.07;;
14187;SDS011;7175;51.978;5.330;2023-12-20T11:06:29;31.07;;;28.17;;
14187;SDS011;7175;51.978;5.330;2023-12-20T11:09:06;30.53;;;27.63;;
14187;SDS011;7175;51.978;5.330;2023-12-20T11:11:44;28.57;;;25.87;;
14187;SDS011;7175;51.978;5.330;2023-12-20T11:14:23;28.77;;;26.07;;
14187;SDS011;7175;51.978;5.330;2023-12-20T11:17:05;29.03;;;26.33;;
14187;SDS011;7175;51.978;5.330;2023-12-20T11:19:35;28.47;;;25.77;;
14187;SDS011;7175;51.978;5.330;2023-12-20T11:22:04;28.27;;;25.57;;
14187;SDS011;7175;51.978;5.330;2023-12-20T11:24:35;28.77;;;26.07;;
14187;SDS011;7175;51.978;5.330;2023-12-20T11:27:12;28.60;;;25.90;;
14187;SDS011;7175;51.978;5.330;2023-12-20T11:29:40;27.30;;;24.67;;
14187;SDS011;7175;51.978;5.330;2023-12-20T11:34:57;27.73;;;25.13;;
14187;SDS011;7175;51.978;5.330;2023-12-20T11:37:30;27.17;;;24.57;;
14187;SDS011;7175;51.978;5.330;2023-12-20T11:40:02;26.27;;;23.67;;
14187;SDS011;7175;51.978;5.330;2023-12-20T11:42:32;26.47;;;23.87;;
14187;SDS011;7175;51.978;5.330;2023-12-20T11:45:05;26.20;;;23.67;;
14187;SDS011;7175;51.978;5.330;2023-12-20T11:47:35;26.47;;;23.87;;
14187;SDS011;7175;51.978;5.330;2023-12-20T11:50:04;27.27;;;24.57;;
14187;SDS011;7175;51.978;5.330;2023-12-20T11:52:33;27.53;;;24.83;;
14187;SDS011;7175;51.978;5.330;2023-12-20T11:55:02;26.57;;;23.97;;
14187;SDS011;7175;51.978;5.330;2023-12-20T11:57:31;27.67;;;24.97;;
14187;SDS011;7175;51.978;5.330;2023-12-20T11:59:59;26.37;;;23.77;;
14187;SDS011;7175;51.978;5.330;2023-12-20T12:02:27;28.07;;;25.37;;
14187;SDS011;7175;51.978;5.330;2023-12-20T12:04:55;30.00;;;27.20;;
14187;SDS011;7175;51.978;5.330;2023-12-20T12:07:25;30.27;;;27.47;;
14187;SDS011;7175;51.978;5.330;2023-12-20T12:09:53;29.87;;;27.07;;
14187;SDS011;7175;51.978;5.330;2023-12-20T12:12:22;31.00;;;28.10;;
14187;SDS011;7175;51.978;5.330;2023-12-20T12:14:52;28.30;;;25.60;;
14187;SDS011;7175;51.978;5.330;2023-12-20T12:17:20;26.73;;;24.13;;
14187;SDS011;7175;51.978;5.330;2023-12-20T12:19:48;28.20;;;25.50;;
14187;SDS011;7175;51.978;5.330;2023-12-20T12:22:16;27.83;;;25.23;;
14187;SDS011;7175;51.978;5.330;2023-12-20T12:24:47;27.00;;;24.40;;
14187;SDS011;7175;51.978;5.330;2023-12-20T12:27:16;27.67;;;25.07;;
14187;SDS011;7175;51.978;5.330;2023-12-20T12:32:29;27.00;;;24.40;;
14187;SDS011;7175;51.978;5.330;2023-12-20T12:34:57;26.37;;;23.77;;
14187;SDS011;7175;51.978;5.330;2023-12-20T12:37:25;26.43;;;23.83;;
14187;SDS011;7175;51.978;5.330;2023-12-20T12:39:53;26.13;;;23.53;;
14187;SDS011;7175;51.978;5.330;2023-12-20T12:42:22;26.17;;;23.67;;
14187;SDS011;7175;51.978;5.330;2023-12-20T12:44:57;26.50;;;23.93;;
14187;SDS011;7175;51.978;5.330;2023-12-20T12:47:28;25.93;;;23.43;;
14187;SDS011;7175;51.978;5.330;2023-12-20T12:49:56;26.33;;;23.77;;
14187;SDS011;7175;51.978;5.330;2023-12-20T12:52:24;26.30;;;23.80;;
14187;SDS011;7175;51.978;5.330;2023-12-20T12:54:53;25.87;;;23.37;;
14187;SDS011;7175;51.978;5.330;2023-12-20T12:57:21;25.83;;;23.33;;
14187;SDS011;7175;51.978;5.330;2023-12-20T12:59:50;25.87;;;23.37;;
14187;SDS011;7175;51.978;5.330;2023-12-20T13:02:19;25.90;;;23.40;;
14187;SDS011;7175;51.978;5.330;2023-12-20T13:04:47;25.60;;;23.20;;
14187;SDS011;7175;51.978;5.330;2023-12-20T13:07:15;25.60;;;23.10;;
14187;SDS011;7175;51.978;5.330;2023-12-20T13:09:43;25.47;;;22.97;;
14187;SDS011;7175;51.978;5.330;2023-12-20T13:12:11;25.77;;;23.27;;
14187;SDS011;7175;51.978;5.330;2023-12-20T13:14:39;25.80;;;23.30;;
14187;SDS011;7175;51.978;5.330;2023-12-20T13:17:07;26.30;;;23.80;;
14187;SDS011;7175;51.978;5.330;2023-12-20T13:19:36;26.43;;;23.87;;
14187;SDS011;7175;51.978;5.330;2023-12-20T13:22:05;26.03;;;23.53;;
14187;SDS011;7175;51.978;5.330;2023-12-20T13:24:33;26.47;;;23.97;;
14187;SDS011;7175;51.978;5.330;2023-12-20T13:27:01;25.87;;;23.37;;
14187;SDS011;7175;51.978;5.330;2023-12-20T13:29:30;25.83;;;23.33;;
14187;SDS011;7175;51.978;5.330;2023-12-20T13:31:58;25.63;;;23.13;;
14187;SDS011;7175;51.978;5.330;2023-12-20T13:34:26;24.93;;;22.53;;
14187;SDS011;7175;51.978;5.330;2023-12-20T13:36:55;25.37;;;22.93;;
14187;SDS011;7175;51.978;5.330;2023-12-20T13:39:24;24.97;;;22.57;;
14187;SDS011;7175;51.978;5.330;2023-12-20T13:41:51;25.80;;;23.30;;
14187;SDS011;7175;51.978;5.330;2023-12-20T13:44:21;25.00;;;22.60;;
14187;SDS011;7175;51.978;5.330;2023-12-20T13:46:49;24.57;;;22.17;;
14187;SDS011;7175;51.978;5.330;2023-12-20T13:49:17;24.77;;;22.37;;
14187;SDS011;7175;51.978;5.330;2023-12-20T13:51:45;24.93;;;22.53;;
14187;SDS011;7175;51.978;5.330;2023-12-20T13:54:15;25.03;;;22.63;;
14187;SDS011;7175;51.978;5.330;2023-12-20T13:56:46;24.80;;;22.40;;
14187;SDS011;7175;51.978;5.330;2023-12-20T13:59:32;24.97;;;22.57;;
14187;SDS011;7175;51.978;5.330;2023-12-20T14:02:01;25.50;;;23.10;;
14187;SDS011;7175;51.978;5.330;2023-12-20T14:04:30;25.13;;;22.73;;
14187;SDS011;7175;51.978;5.330;2023-12-20T14:07:08;24.77;;;22.37;;
14187;SDS011;7175;51.978;5.330;2023-12-20T14:09:40;24.37;;;21.97;;
14187;SDS011;7175;51.978;5.330;2023-12-20T14:12:12;25.07;;;22.67;;
14187;SDS011;7175;51.978;5.330;2023-12-20T14:14:41;24.93;;;22.53;;
14187;SDS011;7175;51.978;5.330;2023-12-20T14:17:11;25.10;;;22.70;;
14187;SDS011;7175;51.978;5.330;2023-12-20T14:19:39;25.60;;;23.10;;
14187;SDS011;7175;51.978;5.330;2023-12-20T14:22:07;26.13;;;23.63;;
14187;SDS011;7175;51.978;5.330;2023-12-20T14:24:35;25.23;;;22.83;;
14187;SDS011;7175;51.978;5.330;2023-12-20T14:27:05;25.13;;;22.73;;
14187;SDS011;7175;51.978;5.330;2023-12-20T14:29:33;25.47;;;23.07;;
14187;SDS011;7175;51.978;5.330;2023-12-20T14:32:01;26.10;;;23.60;;
14187;SDS011;7175;51.978;5.330;2023-12-20T14:34:30;25.83;;;23.33;;
14187;SDS011;7175;51.978;5.330;2023-12-20T14:36:58;26.30;;;23.80;;
14187;SDS011;7175;51.978;5.330;2023-12-20T14:39:26;27.03;;;24.53;;
14187;SDS011;7175;51.978;5.330;2023-12-20T14:41:54;27.90;;;25.30;;
14187;SDS011;7175;51.978;5.330;2023-12-20T14:44:24;28.50;;;25.90;;
14187;SDS011;7175;51.978;5.330;2023-12-20T14:46:52;28.00;;;25.40;;